createdAt,value
2023-12-23T00:01:31.282Z,3.17
2023-12-23T00:04:18.960Z,8.95
2023-12-23T00:07:06.511Z,11.55
2023-12-23T00:09:55.911Z,5.57
2023-12-23T00:12:43.320Z,3.70
2023-12-23T00:15:30.667Z,2.78
2023-12-23T00:18:18.037Z,7.00
2023-12-23T00:21:08.495Z,5.10
2023-12-23T00:23:58.258Z,3.60
2023-12-23T00:26:45.398Z,6.63
2023-12-23T00:29:32.961Z,7.00
2023-12-23T00:32:20.947Z,5.18
2023-12-23T00:35:10.080Z,5.40
2023-12-23T00:37:57.374Z,6.55
2023-12-23T00:40:44.623Z,6.43
2023-12-23T00:43:32.253Z,7.70
2023-12-23T00:46:21.414Z,7.78
2023-12-23T00:49:08.791Z,7.60
2023-12-23T00:51:58.219Z,6.10
2023-12-23T00:54:46.626Z,6.05
2023-12-23T00:57:34.192Z,5.95
2023-12-23T01:00:22.033Z,6.05
2023-12-23T01:03:09.175Z,8.07
2023-12-23T01:05:56.735Z,3.60
2023-12-23T01:08:44.028Z,7.55
2023-12-23T01:11:31.760Z,5.97
2023-12-23T01:14:18.973Z,3.65
2023-12-23T01:17:06.990Z,2.72
2023-12-23T01:19:54.525Z,4.43
2023-12-23T01:22:41.705Z,5.90
2023-12-23T01:25:28.786Z,5.78
2023-12-23T01:28:16.138Z,2.30
2023-12-23T01:31:03.520Z,7.15
2023-12-23T01:33:51.008Z,3.53
2023-12-23T01:36:38.197Z,3.63
2023-12-23T01:39:26.020Z,7.20
2023-12-23T01:42:13.332Z,7.35
2023-12-23T01:45:00.487Z,10.77
2023-12-23T01:47:51.092Z,5.55
2023-12-23T01:50:39.371Z,10.68
2023-12-23T01:53:27.770Z,5.47
2023-12-23T01:56:16.351Z,5.63
2023-12-23T01:59:04.747Z,5.50
2023-12-23T02:01:53.054Z,7.57
2023-12-23T02:04:40.478Z,8.23
2023-12-23T02:07:27.900Z,5.88
2023-12-23T02:10:18.586Z,6.72
2023-12-23T02:13:32.861Z,6.82
2023-12-23T02:16:27.263Z,8.05
2023-12-23T02:19:14.574Z,5.75
2023-12-23T02:22:02.718Z,11.80
2023-12-23T02:24:49.949Z,3.15
2023-12-23T02:27:44.354Z,4.07
2023-12-23T02:30:35.127Z,5.32
2023-12-23T02:36:10.225Z,5.38
2023-12-23T02:38:57.358Z,5.28
2023-12-23T02:41:46.846Z,4.07
2023-12-23T02:44:34.874Z,5.32
2023-12-23T02:47:22.808Z,2.95
2023-12-23T02:50:10.395Z,14.73
2023-12-23T02:53:00.817Z,4.97
2023-12-23T02:55:48.232Z,8.23
2023-12-23T02:58:35.542Z,7.95
2023-12-23T03:01:23.067Z,4.65
2023-12-23T03:04:11.549Z,3.85
2023-12-23T03:06:58.847Z,3.78
2023-12-23T03:09:46.594Z,3.28
2023-12-23T03:12:33.814Z,9.70
2023-12-23T03:15:21.074Z,4.00
2023-12-23T03:18:08.498Z,8.15
2023-12-23T03:20:55.714Z,4.72
2023-12-23T03:23:44.728Z,9.02
2023-12-23T03:26:32.259Z,6.80
2023-12-23T03:29:23.152Z,6.97
2023-12-23T03:32:11.315Z,6.95
2023-12-23T03:34:59.051Z,5.63
2023-12-23T03:37:46.556Z,2.60
2023-12-23T03:40:34.321Z,3.72
2023-12-23T03:43:23.038Z,5.30
2023-12-23T03:46:10.307Z,4.32
2023-12-23T03:48:57.784Z,5.97
2023-12-23T03:51:44.991Z,3.53
2023-12-23T03:54:32.482Z,6.20
2023-12-23T03:57:19.589Z,3.35
2023-12-23T04:00:08.099Z,6.28
2023-12-23T04:03:01.121Z,9.38
2023-12-23T04:05:48.383Z,5.30
2023-12-23T04:08:35.547Z,6.28
2023-12-23T04:11:22.716Z,5.97
2023-12-23T04:14:10.114Z,9.82
2023-12-23T04:16:57.480Z,3.08
2023-12-23T04:19:44.739Z,10.10
2023-12-23T04:22:31.881Z,5.38
2023-12-23T04:25:22.057Z,6.60
2023-12-23T04:30:59.627Z,3.53
2023-12-23T04:33:46.902Z,2.92
2023-12-23T04:36:35.874Z,4.05
2023-12-23T04:39:23.999Z,4.43
2023-12-23T04:42:11.352Z,11.88
2023-12-23T04:44:58.593Z,6.47
2023-12-23T04:47:45.827Z,5.05
2023-12-23T04:50:33.349Z,5.47
2023-12-23T04:53:24.132Z,3.47
2023-12-23T04:56:11.704Z,3.08
2023-12-23T04:58:59.078Z,7.80
2023-12-23T05:01:49.590Z,9.20
2023-12-23T05:04:36.967Z,8.57
2023-12-23T05:07:24.144Z,14.13
2023-12-23T05:10:12.775Z,4.95
2023-12-23T05:13:01.119Z,6.65
2023-12-23T05:15:48.504Z,9.60
2023-12-23T05:18:36.713Z,8.40
2023-12-23T05:21:23.999Z,5.30
2023-12-23T05:24:11.462Z,7.53
2023-12-23T05:27:02.264Z,6.55
2023-12-23T05:29:49.793Z,13.68
2023-12-23T05:32:37.135Z,3.38
2023-12-23T05:35:24.551Z,2.78
2023-12-23T05:38:11.807Z,4.13
2023-12-23T05:40:59.131Z,6.10
2023-12-23T05:43:46.696Z,7.97
2023-12-23T05:46:33.796Z,4.55
2023-12-23T05:49:24.247Z,6.40
2023-12-23T05:54:59.175Z,3.67
2023-12-23T05:57:48.593Z,8.40
2023-12-23T06:00:35.908Z,3.58
2023-12-23T06:03:23.556Z,3.75
2023-12-23T06:06:12.192Z,5.35
2023-12-23T06:08:59.691Z,3.10
2023-12-23T06:11:48.414Z,5.15
2023-12-23T06:14:37.468Z,4.90
2023-12-23T06:17:27.218Z,6.55
2023-12-23T06:20:14.680Z,5.03
2023-12-23T06:23:02.264Z,6.13
2023-12-23T06:25:49.494Z,3.17
2023-12-23T06:28:36.707Z,3.50
2023-12-23T06:31:23.929Z,3.78
2023-12-23T06:34:11.177Z,4.18
2023-12-23T06:36:59.721Z,5.07
2023-12-23T06:39:46.866Z,6.82
2023-12-23T06:42:34.219Z,6.20
2023-12-23T06:45:22.136Z,3.72
2023-12-23T06:48:09.426Z,5.05
2023-12-23T06:50:56.744Z,2.47
2023-12-23T06:53:45.741Z,4.85
2023-12-23T06:56:32.948Z,4.70
2023-12-23T06:59:20.189Z,3.50
2023-12-23T07:02:07.599Z,7.10
2023-12-23T07:04:54.821Z,3.95
2023-12-23T07:07:43.636Z,3.83
2023-12-23T07:10:30.855Z,5.88
2023-12-23T07:13:18.235Z,6.82
2023-12-23T07:16:06.094Z,3.92
2023-12-23T07:18:54.847Z,3.13
2023-12-23T07:21:42.015Z,9.27
2023-12-23T07:24:29.249Z,3.50
2023-12-23T07:27:16.902Z,6.32
2023-12-23T07:30:04.458Z,2.78
2023-12-23T07:32:52.118Z,3.88
2023-12-23T07:35:39.607Z,3.65
2023-12-23T07:38:26.825Z,1.88
2023-12-23T07:41:14.123Z,8.25
2023-12-23T07:44:01.523Z,3.80
2023-12-23T07:46:48.726Z,2.25
2023-12-23T07:49:38.928Z,3.90
2023-12-23T07:52:28.012Z,2.63
2023-12-23T07:55:16.186Z,3.90
2023-12-23T07:58:03.423Z,4.28
2023-12-23T08:00:51.077Z,2.35
2023-12-23T08:03:39.616Z,1.90
2023-12-23T08:06:26.858Z,6.57
2023-12-23T08:09:14.439Z,3.58
2023-12-23T08:12:01.659Z,2.80
2023-12-23T08:14:48.982Z,1.98
2023-12-23T08:17:36.301Z,2.40
2023-12-23T08:20:23.735Z,2.72
2023-12-23T08:23:11.032Z,1.25
2023-12-23T08:25:58.311Z,4.10
2023-12-23T08:28:46.886Z,2.08
2023-12-23T08:31:34.579Z,2.78
2023-12-23T08:34:22.836Z,2.80
2023-12-23T08:37:10.395Z,2.75
2023-12-23T08:39:57.694Z,1.00
2023-12-23T08:42:46.121Z,1.00
2023-12-23T08:45:33.692Z,1.50
2023-12-23T08:48:20.904Z,0.80
2023-12-23T08:51:09.040Z,1.13
2023-12-23T08:53:56.844Z,1.58
2023-12-23T08:56:44.150Z,2.13
2023-12-23T08:59:31.349Z,0.98
2023-12-23T09:02:18.843Z,1.08
2023-12-23T09:05:07.128Z,1.58
2023-12-23T09:07:54.689Z,1.27
2023-12-23T09:10:42.166Z,1.45
2023-12-23T09:13:29.362Z,0.98
2023-12-23T09:16:18.085Z,0.98
2023-12-23T09:19:05.760Z,2.83
2023-12-23T09:21:52.996Z,0.40
2023-12-23T09:24:42.929Z,0.45
2023-12-23T09:27:32.366Z,1.30
2023-12-23T09:30:19.683Z,2.15
2023-12-23T09:33:07.249Z,0.40
2023-12-23T09:35:54.877Z,0.75
2023-12-23T09:38:42.093Z,0.47
2023-12-23T09:41:29.502Z,0.98
2023-12-23T09:44:17.753Z,0.68
2023-12-23T09:47:06.823Z,0.68
2023-12-23T09:49:54.256Z,2.08
2023-12-23T09:52:41.822Z,0.80
2023-12-23T09:55:32.083Z,0.60
2023-12-23T09:58:19.376Z,1.33
2023-12-23T10:01:06.889Z,0.60
2023-12-23T10:03:54.518Z,1.10
2023-12-23T10:06:41.815Z,0.60
2023-12-23T10:09:31.148Z,1.48
2023-12-23T10:12:18.404Z,1.25
2023-12-23T10:15:06.077Z,0.68
2023-12-23T10:17:54.326Z,1.50
2023-12-23T10:20:43.517Z,0.95
2023-12-23T10:23:30.974Z,1.08
2023-12-23T10:26:18.511Z,0.35
2023-12-23T10:29:06.846Z,1.33
2023-12-23T10:31:56.661Z,2.50
2023-12-23T10:34:45.175Z,1.00
2023-12-23T10:37:34.842Z,0.70
2023-12-23T10:40:29.226Z,1.83
2023-12-23T10:43:18.659Z,6.18
2023-12-23T10:46:08.477Z,0.63
2023-12-23T10:48:56.702Z,0.30
2023-12-23T10:51:44.898Z,1.75
2023-12-23T10:54:34.316Z,0.70
2023-12-23T10:57:25.540Z,0.63
2023-12-23T11:00:13.733Z,0.52
2023-12-23T11:03:02.894Z,0.43
2023-12-23T11:05:51.562Z,0.80
2023-12-23T11:08:39.524Z,0.25
2023-12-23T11:11:28.174Z,1.30
2023-12-23T11:14:15.423Z,1.08
2023-12-23T11:17:03.472Z,0.32
2023-12-23T11:19:51.047Z,0.98
2023-12-23T11:22:39.660Z,0.80
2023-12-23T11:25:40.647Z,0.55
2023-12-23T11:28:30.337Z,0.40
2023-12-23T11:31:17.610Z,0.90
2023-12-23T11:34:16.381Z,0.50
2023-12-23T11:37:04.734Z,0.73
2023-12-23T11:39:53.428Z,0.50
2023-12-23T11:42:42.081Z,0.30
2023-12-23T11:45:29.569Z,0.50
2023-12-23T11:48:19.459Z,0.88
2023-12-23T11:51:09.540Z,0.30
2023-12-23T11:53:59.954Z,0.40
2023-12-23T11:56:47.886Z,0.40
2023-12-23T11:59:37.466Z,1.98
2023-12-23T12:02:26.348Z,6.18
2023-12-23T12:05:13.973Z,1.50
2023-12-23T12:08:01.829Z,0.50
2023-12-23T12:10:49.486Z,2.03
2023-12-23T12:13:41.545Z,1.85
2023-12-23T12:16:29.016Z,1.52
2023-12-23T12:19:17.333Z,0.30
2023-12-23T12:22:05.017Z,0.73
2023-12-23T12:24:53.299Z,0.47
2023-12-23T12:27:41.734Z,0.70
2023-12-23T12:30:29.026Z,0.40
2023-12-23T12:33:16.842Z,0.95
2023-12-23T12:36:04.526Z,0.52
2023-12-23T12:38:51.901Z,2.00
2023-12-23T12:41:39.283Z,0.85
2023-12-23T12:44:27.388Z,2.47
2023-12-23T12:47:14.700Z,0.60
2023-12-23T12:50:07.473Z,3.53
2023-12-23T12:52:58.806Z,0.98
2023-12-23T12:58:33.417Z,1.85
2023-12-23T13:01:22.081Z,1.58
2023-12-23T13:04:09.674Z,3.33
2023-12-23T13:06:57.020Z,0.60
2023-12-23T13:09:47.037Z,1.05
2023-12-23T13:12:35.864Z,0.50
2023-12-23T13:15:24.155Z,1.60
2023-12-23T13:18:11.354Z,1.00
2023-12-23T13:20:58.519Z,0.65
2023-12-23T13:23:45.715Z,0.80
2023-12-23T13:26:32.937Z,1.02
2023-12-23T13:29:22.671Z,0.75
2023-12-23T13:32:11.373Z,0.55
2023-12-23T13:35:02.050Z,1.55
2023-12-23T13:37:49.322Z,0.40
2023-12-23T13:40:38.428Z,1.08
2023-12-23T13:43:26.063Z,2.15
2023-12-23T13:46:14.708Z,2.60
2023-12-23T13:49:02.109Z,0.85
2023-12-23T13:51:49.447Z,0.80
2023-12-23T13:54:37.278Z,0.40
2023-12-23T13:57:27.034Z,0.70
2023-12-23T14:00:14.736Z,1.25
2023-12-23T14:03:01.991Z,0.82
2023-12-23T14:05:49.390Z,1.52
2023-12-23T14:08:36.683Z,2.42
2023-12-23T14:11:24.063Z,0.50
2023-12-23T14:14:11.437Z,0.75
2023-12-23T14:16:58.989Z,1.95
2023-12-23T14:19:46.501Z,1.40
2023-12-23T14:22:33.671Z,0.68
2023-12-23T14:25:22.042Z,4.65
2023-12-23T14:28:10.605Z,2.20
2023-12-23T14:30:57.845Z,0.95
2023-12-23T14:33:46.322Z,0.63
2023-12-23T14:36:34.000Z,0.95
2023-12-23T14:39:24.464Z,0.70
2023-12-23T14:42:12.143Z,1.38
2023-12-23T14:45:02.182Z,1.73
2023-12-23T14:47:51.071Z,1.13
2023-12-23T14:50:38.568Z,1.83
2023-12-23T14:53:26.540Z,1.25
2023-12-23T14:56:13.908Z,5.35
2023-12-23T14:59:01.293Z,2.30
2023-12-23T15:01:48.845Z,6.60
2023-12-23T15:04:39.095Z,1.73
2023-12-23T15:07:28.812Z,1.20
2023-12-23T15:10:16.357Z,0.50
2023-12-23T15:13:05.782Z,1.38
2023-12-23T15:15:53.160Z,1.40
2023-12-23T15:18:40.607Z,1.20
2023-12-23T15:21:27.980Z,0.85
2023-12-23T15:24:15.184Z,1.63
2023-12-23T15:27:02.352Z,0.70
2023-12-23T15:29:49.850Z,0.80
2023-12-23T15:32:37.284Z,1.38
2023-12-23T15:35:24.737Z,1.10
2023-12-23T15:38:11.943Z,1.25
2023-12-23T15:40:59.126Z,1.02
2023-12-23T15:43:46.389Z,0.98
2023-12-23T15:46:34.646Z,0.70
2023-12-23T15:49:21.832Z,3.08
2023-12-23T15:52:09.018Z,1.27
2023-12-23T15:54:57.305Z,1.27
2023-12-23T15:57:44.738Z,1.63
2023-12-23T16:00:32.050Z,1.02
2023-12-23T16:03:19.397Z,2.08
2023-12-23T16:06:16.088Z,1.70
2023-12-23T16:09:03.384Z,0.55
2023-12-23T16:11:50.929Z,2.08
2023-12-23T16:14:42.034Z,2.05
2023-12-23T16:17:29.669Z,1.23
2023-12-23T16:20:18.479Z,2.60
2023-12-23T16:23:06.792Z,1.83
2023-12-23T16:25:55.215Z,1.15
2023-12-23T16:28:43.155Z,2.30
2023-12-23T16:31:31.538Z,4.28
2023-12-23T16:34:19.635Z,4.45
2023-12-23T16:37:07.130Z,4.53
2023-12-23T16:39:54.647Z,3.30
2023-12-23T16:42:41.832Z,3.28
2023-12-23T16:45:29.432Z,7.80
2023-12-23T16:48:16.792Z,1.20
2023-12-23T16:51:05.011Z,3.85
2023-12-23T16:53:52.285Z,2.97
2023-12-23T16:56:39.831Z,3.90
2023-12-23T16:59:27.294Z,2.20
2023-12-23T17:02:14.555Z,3.60
2023-12-23T17:05:02.026Z,1.40
2023-12-23T17:07:49.556Z,2.72
2023-12-23T17:10:36.912Z,2.42
2023-12-23T17:13:25.343Z,6.32
2023-12-23T17:16:14.313Z,1.10
2023-12-23T17:19:01.724Z,1.52
2023-12-23T17:21:49.860Z,1.02
2023-12-23T17:24:37.099Z,1.70
2023-12-23T17:27:24.217Z,1.02
2023-12-23T17:30:11.811Z,2.30
2023-12-23T17:33:00.179Z,2.90
2023-12-23T17:35:47.580Z,3.63
2023-12-23T17:38:35.429Z,3.80
2023-12-23T17:41:22.676Z,1.95
2023-12-23T17:44:13.814Z,2.40
2023-12-23T17:49:50.248Z,1.50
2023-12-23T17:52:39.742Z,3.10
2023-12-23T17:55:26.965Z,1.48
2023-12-23T17:58:15.928Z,1.80
2023-12-23T18:01:03.292Z,1.10
2023-12-23T18:03:50.722Z,2.80
2023-12-23T18:06:45.402Z,2.17
2023-12-23T18:09:32.807Z,1.10
2023-12-23T18:12:20.227Z,3.75
2023-12-23T18:15:09.339Z,2.30
2023-12-23T18:17:57.955Z,4.30
2023-12-23T18:20:45.470Z,1.73
2023-12-23T18:23:33.448Z,1.35
2023-12-23T18:26:20.722Z,0.88
2023-12-23T18:29:07.899Z,2.35
2023-12-23T18:31:56.187Z,2.28
2023-12-23T18:34:43.677Z,1.48
2023-12-23T18:37:31.161Z,1.13
2023-12-23T18:40:18.822Z,1.55
2023-12-23T18:43:10.147Z,1.55
2023-12-23T18:45:57.352Z,4.88
2023-12-23T18:48:51.912Z,1.83
2023-12-23T18:51:39.197Z,0.65
2023-12-23T18:54:26.830Z,2.58
2023-12-23T18:57:14.010Z,2.08
2023-12-23T19:00:01.288Z,0.90
2023-12-23T19:02:50.111Z,0.65
2023-12-23T19:05:39.204Z,1.58
2023-12-23T19:08:27.223Z,2.67
2023-12-23T19:11:16.260Z,1.45
2023-12-23T19:14:03.932Z,2.83
2023-12-23T19:16:51.253Z,4.32
2023-12-23T19:19:38.448Z,3.63
2023-12-23T19:22:25.832Z,3.15
2023-12-23T19:25:13.132Z,1.77
2023-12-23T19:28:00.530Z,1.73
2023-12-23T19:30:47.640Z,1.42
2023-12-23T19:33:35.226Z,1.80
2023-12-23T19:36:23.818Z,1.48
2023-12-23T19:39:11.293Z,3.33
2023-12-23T19:41:58.629Z,4.60
2023-12-23T19:44:46.352Z,3.28
2023-12-23T19:47:33.779Z,5.13
2023-12-23T19:50:21.950Z,2.00
2023-12-23T19:53:10.382Z,3.25
2023-12-23T19:55:57.703Z,4.10
2023-12-23T19:58:46.239Z,4.40
2023-12-23T20:01:36.063Z,2.80
2023-12-23T20:04:23.588Z,4.38
2023-12-23T20:07:12.535Z,2.90
2023-12-23T20:10:00.132Z,3.78
2023-12-23T20:12:47.513Z,5.00
2023-12-23T20:15:34.744Z,8.20
2023-12-23T20:18:22.156Z,3.53
2023-12-23T20:21:09.727Z,1.88
2023-12-23T20:23:57.336Z,3.05
2023-12-23T20:26:44.788Z,1.67
2023-12-23T20:29:33.109Z,2.38
2023-12-23T20:32:20.337Z,1.15
2023-12-23T20:35:10.753Z,1.20
2023-12-23T20:38:00.163Z,1.10
2023-12-23T20:40:48.501Z,0.75
2023-12-23T20:43:35.703Z,1.35
2023-12-23T20:46:22.890Z,1.25
2023-12-23T20:49:11.198Z,1.13
2023-12-23T20:51:58.786Z,1.73
2023-12-23T20:54:45.910Z,0.98
2023-12-23T20:57:33.484Z,1.17
2023-12-23T21:00:22.033Z,1.17
2023-12-23T21:03:09.378Z,1.10
2023-12-23T21:05:57.337Z,1.95
2023-12-23T21:08:45.323Z,1.17
2023-12-23T21:11:32.649Z,1.15
2023-12-23T21:14:30.019Z,1.05
2023-12-23T21:17:17.697Z,1.00
2023-12-23T21:20:06.972Z,1.23
2023-12-23T21:22:54.365Z,1.73
2023-12-23T21:25:41.917Z,1.23
2023-12-23T21:28:29.131Z,1.73
2023-12-23T21:31:16.430Z,1.73
2023-12-23T21:34:03.603Z,1.50
2023-12-23T21:36:51.071Z,1.67
2023-12-23T21:39:38.515Z,1.48
2023-12-23T21:42:25.998Z,1.88
2023-12-23T21:45:13.235Z,0.60
2023-12-23T21:48:00.649Z,0.52
2023-12-23T21:50:48.151Z,1.63
2023-12-23T21:53:35.722Z,3.78
2023-12-23T21:56:30.400Z,5.55
2023-12-23T21:59:18.413Z,3.17
2023-12-23T22:02:07.823Z,2.30
2023-12-23T22:04:55.314Z,2.38
2023-12-23T22:07:44.755Z,1.33
2023-12-23T22:10:32.095Z,1.40
2023-12-23T22:13:19.440Z,2.50
2023-12-23T22:16:08.225Z,3.15
2023-12-23T22:18:56.529Z,2.53
2023-12-23T22:21:43.947Z,3.63
2023-12-23T22:24:32.272Z,2.15
2023-12-23T22:27:20.093Z,1.77
2023-12-23T22:30:07.961Z,1.27
2023-12-23T22:32:57.365Z,1.58
2023-12-23T22:35:47.387Z,1.67
2023-12-23T22:38:35.388Z,0.98
2023-12-23T22:41:23.781Z,1.20
2023-12-23T22:44:12.155Z,2.80
2023-12-23T22:47:00.796Z,1.35
2023-12-23T22:49:50.450Z,4.18
2023-12-23T22:52:39.727Z,0.55
2023-12-23T22:55:27.082Z,1.30
2023-12-23T22:58:15.099Z,1.65
2023-12-23T23:01:02.762Z,0.90
2023-12-23T23:03:50.379Z,1.70
2023-12-23T23:06:37.790Z,4.25
2023-12-23T23:09:26.814Z,2.97
2023-12-23T23:12:16.246Z,1.83
2023-12-23T23:15:03.837Z,1.23
2023-12-23T23:17:51.763Z,1.77
2023-12-23T23:20:39.681Z,1.33
2023-12-23T23:23:27.160Z,2.85
2023-12-23T23:26:15.469Z,1.60
2023-12-23T23:29:03.004Z,4.68
2023-12-23T23:31:50.808Z,1.55
2023-12-23T23:34:38.086Z,1.35
2023-12-23T23:37:25.404Z,1.73
2023-12-23T23:40:13.062Z,1.40
2023-12-23T23:43:03.466Z,1.13
2023-12-23T23:45:52.109Z,3.30
2023-12-23T23:48:39.429Z,3.78
2023-12-23T23:51:29.311Z,0.60
2023-12-23T23:54:16.638Z,2.85
2023-12-23T23:57:05.589Z,2.40
2023-12-23T23:59:53.164Z,2.60
